Round Hill, Nevada
Current Conditions -  °F | °C
As of 7:53 PM on Tuesday 21 Oct 2014 (Local Time) from KTVL Reporting Station
Clear Clear  
Wind Chill: 43°   Ceiling: Unl
Heat Index: 43°   Visibility: 10mi
Dew Point: 34°   Wind: 0mph
Humidity: 71%   Direction: NA
Pressure: 30.1"   Gusts: NA
Location:  39.0164°N, 119.925°W
Report Text: KTVL 220253Z AUTO 00000KT 10SM CLR 06/01 A3010 RMK AO2 SLP179 T00610011 $
Loading
Personal Weather Stations






























Interactive Weather Map
Tropical Storm Tracking
New forecast layout! Learn more

10-Day Weather Forecast

Advertisements
Track Severe Weather on mobile